Redwood National Park, CA

9:02 AM PDT op 22 mei 2015 (GMT -0700)
Sunny Brae | | Change Station
CLOSE
Current Station
Persoonlijk weerstation
Location: Arcata, CA
Geometrische hoogte: 213 ft
Nabije weerstations

Hoogte 213 ft 40.85 °N, 124.05 °W | Updated 1 minute ago

Geheel bewolkt
Geheel bewolkt
55.1 °F
Voelt als 55.1 °F
N
1.0
Wind Variabel Wind van ZZO
Gusts 1.0 mijl/u

Vandaag
Hoog -- | Laag -- °F
--% Kans op neerslag
Gisteren
Hoog -- | Laag -- °F
Precip. -- inches
5:52 AM 8:33 PM
Wassende halvemaan, 22% visible
Druk 30.06 inches
Zicht 10.0 mijlen
Wolken Geheel bewolkt 3000 ft
Dauwpunt 54 °F
Vochtigheid 95%
Neerslag 0.00 inches
Dikte sneeuw Niet beschikbaar.
UV 1 van de 12
Pollen 6.10 van de 12
Luchtkwaliteit Niet beschikbaar.
Flu Activity Sporadic
METAR KACV 221553Z AUTO 32008KT 10SM OVC030 13/12 A3004 RMK AO2 SLP179 T01280117

More Conditions Fewer Conditions

Druk 30.06 inches
Zicht 10.0 mijlen
Wolken Geheel bewolkt 3000 ft
Dauwpunt 54 °F
Vochtigheid 95%
Neerslag 0.00 inches
Dikte sneeuw Niet beschikbaar.
UV 1 van de 12
Pollen 6.10 van de 12
Luchtkwaliteit Niet beschikbaar.
Flu Activity Sporadic
METAR KACV 221553Z AUTO 32008KT 10SM OVC030 13/12 A3004 RMK AO2 SLP179 T01280117

More Conditions Fewer Conditions

10-Day Weather Forecast

Almanac

Astronomie

May. 22, 2015 Opkomst Ondergang
Werkelijke tijd
Burgerlijke schemering
Nautische schemering
Astronomische schemering
Maan
Golflengte van het zichtbare licht
Daglengte
Tomorrow will be .
, % of the Moon is Illuminated

Extremen vandaag

State Highs State Lows

Community

WunderPhotos

Upload Photos

1,823,251 foto’s ge-upload!

WunderBlogs® & News

Nearby

Luchtkwaliteit

  Luchtkwaliteit LK-index Verontreinigende stof
Not available.

Dikte sneeuw

Station Depth Geometrische hoogte

Aardbevingen

Stad Distance Mag. Time & Date
Minimum magnitude displayed is 2.5.

Watertemperatuur langs de kust

Plaats Temperatuur

Stations

Nabije weerstations

Locatie station Temp. Gevoelstemperatuur Dauwpunt Vochtigheid Wind Precip. Hoogte Geactualiseerd Type